Time;durP1;ratioP1;P1;durP2;ratioP2;P2;SDS_P1;SDS_P2;PMS_P1;PMS_P2;Temp;Humidity;BMP_temperature;BMP_pressure;BME280_temperature;BME280_humidity;BME280_pressure;Samples;Min_cycle;Max_cycle;Signal;HPM_P1;HPM_P2
2022/08/14 00:00:05;;;;;;;174.20;54.03;;;;;;;20.02;57.13;100226.44;5040572;28;20075;-69
2022/08/14 00:02:39;;;;;;;157.07;52.25;;;;;;;20.03;57.49;100221.72;5037371;28;20500;-70
2022/08/14 00:05:08;;;;;;;178.70;55.28;;;;;;;20.01;58.30;100219.25;5028860;28;20512;-69
2022/08/14 00:07:34;;;;;;;165.13;48.83;;;;;;;19.99;57.41;100229.88;5040332;28;20131;-68
2022/08/14 00:10:00;;;;;;;169.57;53.90;;;;;;;19.94;57.72;100230.03;5058272;28;20135;-71
2022/08/14 00:12:27;;;;;;;180.90;53.65;;;;;;;19.91;58.10;100223.16;5022738;28;20299;-70
2022/08/14 00:14:53;;;;;;;164.73;55.15;;;;;;;19.88;57.90;100222.97;5039279;28;20052;-69
2022/08/14 00:17:19;;;;;;;161.55;48.50;;;;;;;19.86;57.41;100222.50;5055655;28;20053;-70
2022/08/14 00:19:47;;;;;;;180.23;53.10;;;;;;;19.81;57.02;100223.47;5054705;28;20085;-69
2022/08/14 00:22:17;;;;;;;168.82;52.03;;;;;;;19.77;57.19;100228.06;5022302;28;20048;-68
2022/08/14 00:24:43;;;;;;;152.25;55.70;;;;;;;19.73;57.92;100232.63;5055799;28;20613;-69
2022/08/14 00:27:09;;;;;;;177.82;51.05;;;;;;;19.73;57.52;100222.34;5038425;28;20091;-70
2022/08/14 00:29:35;;;;;;;168.65;52.70;;;;;;;19.73;58.04;100224.31;5025786;28;20057;-69
2022/08/14 00:32:02;;;;;;;169.55;52.28;;;;;;;19.67;58.29;100218.94;5062249;28;20048;-70
2022/08/14 00:34:28;;;;;;;167.45;53.42;;;;;;;19.63;57.99;100209.63;5044934;28;20519;-69
2022/08/14 00:36:55;;;;;;;149.88;50.00;;;;;;;19.59;58.25;100208.66;5038026;28;20053;-71
2022/08/14 00:39:22;;;;;;;139.32;47.03;;;;;;;19.54;57.91;100211.59;5059550;28;20055;-68
2022/08/14 00:41:49;;;;;;;110.47;39.67;;;;;;;19.51;57.44;100217.75;5046375;28;20068;-69
2022/08/14 00:44:15;;;;;;;135.25;46.45;;;;;;;19.49;57.82;100217.28;5038001;28;20423;-67
2022/08/14 00:46:43;;;;;;;137.18;48.75;;;;;;;19.55;58.93;100210.44;5030560;28;20632;-68
2022/08/14 00:49:10;;;;;;;120.88;45.08;;;;;;;19.67;58.33;100213.38;5042096;28;20045;-66
2022/08/14 00:51:37;;;;;;;;;;;;;;;19.63;58.20;100215.16;5048544;28;20098;-67
2022/08/14 00:54:06;;;;;;;145.05;46.72;;;;;;;19.63;58.78;100206.03;5041864;28;19924;-68
2022/08/14 00:56:32;;;;;;;138.23;43.22;;;;;;;19.64;59.06;100204.91;5056123;28;20167;-67
2022/08/14 00:58:59;;;;;;;126.05;45.85;;;;;;;19.70;58.87;100212.72;5027472;28;20052;-67
2022/08/14 01:01:25;;;;;;;118.05;45.00;;;;;;;19.73;58.45;100216.78;5027541;28;20174;-69
2022/08/14 01:03:52;;;;;;;129.83;48.60;;;;;;;19.62;58.17;100209.97;5042014;28;20567;-68
2022/08/14 01:06:20;;;;;;;113.03;43.80;;;;;;;19.53;57.93;100210.75;5043226;28;20048;-68
2022/08/14 01:08:46;;;;;;;126.07;44.30;;;;;;;19.45;58.05;100221.84;5059680;28;20051;-68
2022/08/14 01:11:16;;;;;;;125.00;42.70;;;;;;;19.36;58.18;100219.91;5060801;28;20375;-70
2022/08/14 01:13:44;;;;;;;108.15;41.13;;;;;;;19.28;58.70;100229.00;5060269;28;20578;-67
2022/08/14 01:16:14;;;;;;;98.38;36.47;;;;;;;19.27;57.92;100222.63;5060910;28;20070;-67
2022/08/14 01:21:45;;;;;;;104.13;42.92;;;;;;;19.24;58.51;100231.59;4992788;28;20046;-67
2022/08/14 01:24:14;;;;;;;106.47;41.05;;;;;;;19.20;58.43;100227.00;5031845;28;20044;-69
2022/08/14 01:26:40;;;;;;;110.38;43.78;;;;;;;19.15;58.76;100228.00;5061238;28;20044;-68
2022/08/14 01:29:07;;;;;;;113.90;43.38;;;;;;;19.12;58.55;100223.91;5042591;28;20068;-68
2022/08/14 01:31:45;;;;;;;124.27;44.40;;;;;;;19.09;58.52;100223.75;5041000;28;20045;-69
2022/08/14 01:34:12;;;;;;;104.70;41.63;;;;;;;19.04;58.34;100219.16;5062785;28;20072;-68
2022/08/14 01:36:38;;;;;;;115.40;42.17;;;;;;;19.02;59.01;100224.22;5061306;28;20094;-69
2022/08/14 01:39:08;;;;;;;109.23;40.47;;;;;;;18.97;58.28;100219.63;5036358;28;20993;-70
2022/08/14 01:41:35;;;;;;;100.57;40.22;;;;;;;18.95;58.86;100221.06;5041378;28;20310;-68
2022/08/14 01:44:05;;;;;;;112.95;42.13;;;;;;;19.04;59.87;100230.25;5040042;28;20400;-68
2022/08/14 01:46:33;;;;;;;106.45;40.90;;;;;;;19.10;60.21;100228.97;5043177;28;20538;-68
2022/08/14 01:49:00;;;;;;;103.65;42.30;;;;;;;19.11;60.68;100222.28;5062333;28;20511;-70
2022/08/14 01:51:27;;;;;;;99.35;41.10;;;;;;;19.17;61.01;100231.28;5060363;28;20246;-68
2022/08/14 01:53:54;;;;;;;;;;;;;;;19.19;60.19;100226.22;5060818;28;20044;-68
2022/08/14 01:56:32;;;;;;;88.20;40.03;;;;;;;19.11;59.61;100227.84;5038997;28;20303;-68
2022/08/14 01:58:59;;;;;;;104.85;39.92;;;;;;;19.03;59.36;100234.16;5059554;28;20098;-68
2022/08/14 02:01:25;;;;;;;104.30;38.45;;;;;;;18.97;60.23;100229.88;5043695;28;20550;-70
2022/08/14 02:03:52;;;;;;;106.45;38.25;;;;;;;18.97;60.03;100238.19;5060155;28;20044;-69
2022/08/14 02:06:18;;;;;;;96.35;36.92;;;;;;;18.96;60.59;100234.59;5060100;28;20551;-69
2022/08/14 02:08:44;;;;;;;98.40;40.33;;;;;;;18.97;60.08;100233.47;5061605;28;20056;-69
2022/08/14 02:11:21;;;;;;;96.85;37.08;;;;;;;19.01;60.39;100238.41;5042372;28;20047;-69
2022/08/14 02:13:51;;;;;;;87.57;36.38;;;;;;;18.97;60.35;100240.97;5041635;28;20048;-68
2022/08/14 02:16:24;;;;;;;79.13;34.63;;;;;;;18.95;60.12;100246.81;5059105;28;20118;-69
2022/08/14 02:18:51;;;;;;;78.72;33.40;;;;;;;18.95;60.10;100238.50;5060003;28;20045;-68
2022/08/14 02:21:18;;;;;;;78.47;34.60;;;;;;;18.97;60.32;100240.97;5040245;28;20059;-71
2022/08/14 02:23:46;;;;;;;88.82;34.58;;;;;;;19.01;60.94;100243.94;5037761;28;20059;-69
2022/08/14 02:26:18;;;;;;;76.85;35.38;;;;;;;19.07;60.89;100243.47;5040606;28;20052;-69
2022/08/14 02:28:45;;;;;;;82.30;34.47;;;;;;;19.10;60.34;100245.59;5060787;28;20339;-68
2022/08/14 02:31:13;;;;;;;68.43;30.25;;;;;;;19.03;60.10;100244.44;5040786;28;20052;-69
2022/08/14 02:33:41;;;;;;;79.25;32.33;;;;;;;19.02;60.53;100246.38;5042103;28;20048;-68
2022/08/14 02:36:08;;;;;;;91.07;31.17;;;;;;;19.03;60.46;100242.47;5062432;28;20234;-67
2022/08/14 02:38:35;;;;;;;78.03;31.83;;;;;;;19.07;60.43;100248.19;5059176;28;20052;-68
2022/08/14 02:41:02;;;;;;;56.65;29.52;;;;;;;19.05;60.42;100254.06;5058834;28;20135;-68
2022/08/14 02:43:29;;;;;;;87.22;34.38;;;;;;;19.06;60.84;100252.09;5042273;28;20094;-68
2022/08/14 02:45:56;;;;;;;71.40;32.80;;;;;;;19.08;60.79;100253.41;5058732;28;20044;-67
2022/08/14 02:48:30;;;;;;;79.57;33.28;;;;;;;19.09;60.59;100254.22;5038081;28;20055;-67
2022/08/14 02:50:56;;;;;;;73.07;31.77;;;;;;;19.12;60.87;100253.56;5056428;28;21311;-68
2022/08/14 02:53:22;;;;;;;74.25;34.03;;;;;;;19.15;60.87;100249.34;5037350;28;20113;-70
2022/08/14 02:55:48;;;;;;;71.97;31.25;;;;;;;19.19;60.54;100253.09;5023966;28;20076;-70
2022/08/14 02:58:15;;;;;;;75.57;32.90;;;;;;;19.24;60.16;100258.50;5025680;28;20048;-70
2022/08/14 03:00:42;;;;;;;75.30;35.28;;;;;;;19.25;59.69;100257.38;5042816;28;20055;-67
2022/08/14 03:03:08;;;;;;;85.20;35.05;;;;;;;19.26;59.98;100267.31;5060000;28;20044;-66
2022/08/14 03:05:36;;;;;;;73.97;33.80;;;;;;;19.29;59.46;100272.22;5038968;28;20399;-70
2022/08/14 03:08:08;;;;;;;77.03;33.15;;;;;;;19.32;59.36;100268.78;5059077;28;20143;-68
2022/08/14 03:10:35;;;;;;;61.10;31.60;;;;;;;19.31;59.16;100266.34;5056171;28;20437;-68
2022/08/14 03:13:03;;;;;;;73.20;32.80;;;;;;;19.32;59.51;100279.88;5054354;28;20447;-70
2022/08/14 03:15:29;;;;;;;64.70;33.50;;;;;;;19.32;58.87;100271.56;5060512;28;20050;-70
2022/08/14 03:17:55;;;;;;;67.85;33.92;;;;;;;19.31;59.08;100272.69;5041418;28;20045;-70
2022/08/14 03:20:21;;;;;;;76.18;33.78;;;;;;;19.33;58.75;100272.38;5061168;28;20048;-71
2022/08/14 03:22:50;;;;;;;70.18;35.15;;;;;;;19.38;58.96;100267.50;5039610;28;20523;-70
2022/08/14 03:25:16;;;;;;;66.35;33.33;;;;;;;19.46;58.83;100270.63;5059870;28;20110;-73
2022/08/14 03:27:42;;;;;;;71.55;35.80;;;;;;;19.51;58.65;100267.69;5059816;28;20044;-69
2022/08/14 03:30:09;;;;;;;67.72;34.45;;;;;;;19.54;58.64;100265.06;5058423;28;20400;-69
2022/08/14 03:32:35;;;;;;;75.68;33.78;;;;;;;19.63;58.42;100267.06;5039104;28;20112;-70
2022/08/14 03:35:01;;;;;;;68.65;33.92;;;;;;;19.67;57.95;100262.47;5059171;28;20052;-69
2022/08/14 03:37:29;;;;;;;70.28;35.13;;;;;;;19.80;57.84;100264.28;5026369;28;20109;-70
2022/08/14 03:39:57;;;;;;;67.45;33.70;;;;;;;19.80;57.64;100258.75;5058645;28;20048;-70
2022/08/14 03:42:23;;;;;;;74.38;34.33;;;;;;;19.81;58.04;100259.53;5058827;28;20041;-68
2022/08/14 03:44:50;;;;;;;73.75;33.63;;;;;;;19.83;57.95;100257.28;5043200;28;20045;-69
2022/08/14 03:47:16;;;;;;;76.68;36.22;;;;;;;19.89;57.35;100263.47;5059114;28;20384;-70
2022/08/14 03:49:44;;;;;;;73.00;36.20;;;;;;;19.95;57.33;100262.19;5042993;28;20079;-69
2022/08/14 03:52:11;;;;;;;83.45;35.85;;;;;;;20.06;56.81;100260.72;5063109;28;20078;-69
2022/08/14 03:54:37;;;;;;;72.65;35.40;;;;;;;20.13;57.37;100262.97;5063161;28;20155;-71
2022/08/14 03:57:05;;;;;;;73.25;33.88;;;;;;;20.18;57.72;100262.81;5063756;28;20140;-69
2022/08/14 03:59:31;;;;;;;73.60;34.42;;;;;;;20.23;57.49;100262.66;5045714;28;20045;-69
2022/08/14 04:01:57;;;;;;;73.05;33.88;;;;;;;20.29;57.63;100265.25;5053977;28;20167;-68
2022/08/14 04:04:23;;;;;;;75.68;33.15;;;;;;;20.33;57.40;100261.47;5059869;28;20051;-69
2022/08/14 04:06:50;;;;;;;75.80;31.88;;;;;;;20.35;57.88;100263.94;5062624;28;20513;-70
2022/08/14 04:09:17;;;;;;;71.25;28.15;;;;;;;20.45;56.95;100269.16;5060788;28;20056;-70
2022/08/14 04:11:44;;;;;;;78.35;31.55;;;;;;;20.51;56.78;100265.03;5058846;28;20086;-69
2022/08/14 04:14:13;;;;;;;65.35;32.15;;;;;;;20.57;57.10;100265.69;5061628;28;20067;-70
2022/08/14 04:16:45;;;;;;;71.57;31.65;;;;;;;20.59;56.92;100263.38;5062828;28;20624;-71
2022/08/14 04:19:11;;;;;;;70.15;32.20;;;;;;;20.63;57.18;100269.09;5062984;28;20682;-69
2022/08/14 04:21:38;;;;;;;73.28;30.40;;;;;;;20.68;57.11;100272.50;5062695;28;20102;-70
2022/08/14 04:24:05;;;;;;;63.38;30.48;;;;;;;20.71;57.23;100270.22;5042569;28;20143;-69
2022/08/14 04:26:31;;;;;;;62.22;27.90;;;;;;;20.73;56.79;100267.91;5061131;28;20044;-70
2022/08/14 04:28:58;;;;;;;61.15;28.80;;;;;;;20.81;56.92;100267.91;5041088;28;20139;-70
2022/08/14 04:31:26;;;;;;;77.05;31.13;;;;;;;20.88;56.56;100266.56;5038585;28;20152;-69
2022/08/14 04:33:52;;;;;;;65.85;30.23;;;;;;;20.93;56.29;100261.66;5053666;28;20423;-67
2022/08/14 04:36:18;;;;;;;70.38;31.58;;;;;;;20.96;56.32;100265.72;5061848;28;20132;-68
2022/08/14 04:44:14;;;;;;;66.60;29.25;;;;;;;21.05;56.15;100274.03;5059559;28;20089;-69
2022/08/14 04:48:11;;;;;;;60.20;29.35;;;;;;;21.17;55.81;100268.56;5062780;28;20543;-69
2022/08/14 04:49:28;;;;;;;69.55;29.17;;;;;;;21.29;55.66;100272.56;5042811;28;20047;-70
2022/08/14 04:51:54;;;;;;;62.03;29.08;;;;;;;21.29;55.60;100262.28;5061627;28;20046;-69
2022/08/14 04:54:20;;;;;;;64.57;30.80;;;;;;;21.46;55.30;100271.66;5043182;28;20051;-69
2022/08/14 04:56:46;;;;;;;65.07;29.52;;;;;;;21.51;55.13;100263.94;5062283;28;20060;-69
2022/08/14 04:59:12;;;;;;;63.05;27.77;;;;;;;21.57;55.08;100260.94;5042541;28;20136;-69
2022/08/14 05:01:43;;;;;;;61.37;27.93;;;;;;;21.66;54.78;100261.72;5009146;28;20040;-68
2022/08/14 05:04:11;;;;;;;70.13;27.85;;;;;;;21.71;54.36;100269.06;5062093;28;20470;-69
2022/08/14 05:06:37;;;;;;;62.35;29.55;;;;;;;21.78;54.20;100263.75;5025246;28;20052;-68
2022/08/14 05:09:03;;;;;;;72.45;30.25;;;;;;;21.87;54.19;100272.03;5061522;28;20519;-68
2022/08/14 05:11:32;;;;;;;74.50;26.30;;;;;;;21.94;54.45;100266.75;5060306;28;20055;-68
2022/08/14 05:13:58;;;;;;;63.53;27.88;;;;;;;22.02;54.41;100260.28;5035155;28;20040;-67
2022/08/14 05:16:28;;;;;;;71.75;28.33;;;;;;;22.04;54.34;100268.31;5059576;28;20064;-68
2022/08/14 05:18:56;;;;;;;70.32;28.90;;;;;;;22.06;53.81;100264.00;5042051;28;20048;-68
2022/08/14 05:21:22;;;;;;;63.47;27.08;;;;;;;22.13;54.02;100259.88;5041401;28;20518;-68
2022/08/14 05:23:50;;;;;;;54.63;25.30;;;;;;;22.18;53.65;100259.63;5060797;28;20052;-70
2022/08/14 05:26:20;;;;;;;80.07;27.38;;;;;;;22.22;53.38;100264.19;5015889;28;20143;-70
2022/08/14 05:28:46;;;;;;;66.63;28.13;;;;;;;22.22;53.61;100255.84;5041305;28;20052;-71
2022/08/14 05:31:17;;;;;;;68.67;26.97;;;;;;;22.28;53.79;100256.44;5046255;28;20059;-70
2022/08/14 05:33:44;;;;;;;53.13;26.90;;;;;;;22.37;53.70;100259.13;5060463;28;20507;-69
2022/08/14 05:36:12;;;;;;;65.18;27.40;;;;;;;22.41;53.69;100256.47;5043468;28;20526;-70
2022/08/14 05:38:41;;;;;;;59.72;27.23;;;;;;;22.45;53.51;100249.03;5025455;28;20526;-69
2022/08/14 05:41:08;;;;;;;54.35;25.98;;;;;;;22.54;53.32;100251.75;5051694;28;20047;-70
2022/08/14 05:43:34;;;;;;;65.97;26.58;;;;;;;22.61;52.91;100252.81;5063654;28;20056;-70
2022/08/14 05:46:01;;;;;;;70.13;27.23;;;;;;;22.64;52.72;100248.53;5021608;28;20594;-70
2022/08/14 05:48:28;;;;;;;66.77;31.33;;;;;;;22.72;52.56;100263.53;5043052;28;20056;-69
2022/08/14 05:50:54;;;;;;;64.05;29.35;;;;;;;22.72;52.76;100258.75;5025680;28;20048;-69
2022/08/14 05:53:23;;;;;;;75.75;30.27;;;;;;;22.75;52.87;100260.03;5044018;28;20056;-69
2022/08/14 05:55:51;;;;;;;61.75;27.45;;;;;;;22.83;52.61;100250.75;5021824;28;20060;-68
2022/08/14 05:58:18;;;;;;;64.40;28.98;;;;;;;22.89;52.59;100256.91;5045877;28;20583;-69
2022/08/14 06:00:45;;;;;;;63.00;27.95;;;;;;;22.96;52.56;100248.78;5027786;28;20052;-70
2022/08/14 06:03:13;;;;;;;67.93;28.30;;;;;;;23.07;52.14;100255.50;5048209;28;20048;-70
2022/08/14 06:05:40;;;;;;;65.10;27.10;;;;;;;23.21;51.92;100254.34;5045770;28;20056;-70
2022/08/14 06:08:15;;;;;;;63.50;28.60;;;;;;;23.43;51.32;100252.28;5023993;28;20054;-68
2022/08/14 06:10:43;;;;;;;68.25;27.83;;;;;;;23.60;50.52;100245.59;5023122;28;20143;-69
2022/08/14 06:13:10;;;;;;;68.80;26.75;;;;;;;23.78;50.02;100249.72;5039687;28;20110;-70
2022/08/14 06:15:36;;;;;;;59.88;26.48;;;;;;;24.01;49.43;100254.75;5046675;28;20098;-71
2022/08/14 06:18:02;;;;;;;59.95;24.85;;;;;;;24.14;49.01;100254.75;5040559;28;20515;-72
2022/08/14 06:20:29;;;;;;;49.70;22.93;;;;;;;24.31;48.39;100243.25;5057365;28;20045;-69
2022/08/14 06:22:56;;;;;;;56.90;24.25;;;;;;;24.45;48.32;100244.78;5058618;28;20401;-70
2022/08/14 06:25:22;;;;;;;54.60;24.48;;;;;;;24.57;47.50;100243.88;5056424;28;20037;-69
2022/08/14 06:27:50;;;;;;;55.65;23.70;;;;;;;24.53;47.23;100215.84;5252510;22;20049;-70
2022/08/14 06:30:17;;;;;;;52.38;23.77;;;;;;;24.88;46.61;100250.69;5004741;28;20058;-75
2022/08/14 06:32:44;;;;;;;45.22;22.20;;;;;;;24.95;46.14;100239.66;5021617;28;20136;-75
2022/08/14 06:35:13;;;;;;;51.90;22.88;;;;;;;25.06;45.72;100245.53;5017373;28;20720;-75
2022/08/14 06:37:44;;;;;;;48.45;21.27;;;;;;;25.10;44.88;100232.44;5016637;28;20056;-75
2022/08/14 06:40:12;;;;;;;48.25;21.38;;;;;;;25.12;45.05;100234.84;4999815;28;20196;-75
2022/08/14 06:42:39;;;;;;;39.63;19.63;;;;;;;25.24;44.92;100242.34;5021596;28;20056;-74
2022/08/14 06:45:09;;;;;;;43.22;20.70;;;;;;;25.42;44.60;100237.13;5003497;28;20056;-74
2022/08/14 06:47:36;;;;;;;54.92;22.23;;;;;;;25.45;44.30;100214.81;5022061;28;20045;-75
2022/08/14 06:50:03;;;;;;;52.95;22.85;;;;;;;25.66;43.91;100232.47;5028500;28;20405;-74
2022/08/14 06:52:29;;;;;;;53.70;20.05;;;;;;;25.83;43.56;100236.81;5008158;28;20511;-74
2022/08/14 06:54:56;;;;;;;50.72;21.40;;;;;;;25.88;43.42;100239.34;5000835;28;20052;-75
2022/08/14 06:57:23;;;;;;;51.55;22.58;;;;;;;25.61;43.51;100217.59;5026543;28;20041;-74
2022/08/14 06:59:49;;;;;;;46.57;20.97;;;;;;;25.79;43.27;100238.75;5008303;28;20041;-75
2022/08/14 07:07:46;;;;;;;43.30;18.50;;;;;;;26.32;42.02;100244.63;5000765;28;20050;-69
2022/08/14 07:10:13;;;;;;;45.25;19.35;;;;;;;26.44;41.57;100249.22;5004582;28;20041;-68
2022/08/14 07:12:39;;;;;;;51.97;19.47;;;;;;;26.54;41.39;100239.41;5019060;28;21809;-69
2022/08/14 07:15:06;;;;;;;59.05;20.80;;;;;;;26.68;41.46;100227.59;4984412;28;20395;-70
2022/08/14 07:17:33;;;;;;;;;;;;;;;26.70;41.10;100241.25;5026574;28;20056;-70
2022/08/14 07:19:59;;;;;;;59.85;21.10;;;;;;;26.64;41.13;100239.97;4988312;28;19951;-69
2022/08/14 07:22:26;;;;;;;48.25;19.30;;;;;;;26.81;40.60;100233.84;5008223;28;20077;-68
2022/08/14 07:24:52;;;;;;;46.75;21.73;;;;;;;27.03;40.36;100237.81;5031526;28;20049;-69
2022/08/14 07:27:18;;;;;;;54.25;20.13;;;;;;;27.18;40.07;100238.84;5032132;28;20041;-70
2022/08/14 07:29:44;;;;;;;48.95;21.33;;;;;;;27.30;39.95;100239.81;5037557;28;20512;-69
2022/08/14 07:32:11;;;;;;;57.95;21.80;;;;;;;27.37;39.87;100241.91;4995282;28;20639;-69
2022/08/14 07:34:38;;;;;;;45.05;21.50;;;;;;;27.50;39.46;100237.69;5015247;28;20045;-68
2022/08/14 07:37:04;;;;;;;45.40;21.20;;;;;;;27.55;39.46;100239.34;5019580;28;20122;-69
2022/08/14 07:39:31;;;;;;;48.05;22.15;;;;;;;27.65;39.22;100237.91;5017051;28;20041;-68
2022/08/14 07:41:57;;;;;;;53.00;21.10;;;;;;;27.72;38.92;100236.00;4997826;28;20415;-71
2022/08/14 07:44:23;;;;;;;43.38;19.17;;;;;;;28.01;38.05;100244.75;5035760;28;20063;-69
2022/08/14 07:46:49;;;;;;;41.27;17.83;;;;;;;28.23;36.72;100235.78;5033539;28;20053;-69
2022/08/14 07:49:18;;;;;;;35.80;17.92;;;;;;;28.19;36.58;100234.94;4996443;28;20473;-69
2022/08/14 07:51:46;;;;;;;41.63;18.63;;;;;;;28.17;36.93;100230.50;4997341;28;20050;-69
2022/08/14 07:54:13;;;;;;;38.13;18.45;;;;;;;28.30;36.62;100244.28;5012433;28;20579;-69
2022/08/14 07:56:40;;;;;;;28.65;14.52;;;;;;;28.48;35.57;100236.00;5014185;28;20420;-68
2022/08/14 07:59:07;;;;;;;33.70;14.77;;;;;;;28.59;34.80;100247.38;5029243;28;20045;-69
2022/08/14 08:01:33;;;;;;;24.80;14.57;;;;;;;28.73;34.74;100236.25;5030330;28;20190;-69
2022/08/14 08:04:02;;;;;;;35.50;15.57;;;;;;;28.93;34.21;100230.41;5029707;28;20350;-70
2022/08/14 08:06:29;;;;;;;31.60;14.30;;;;;;;29.35;33.06;100231.06;5011680;28;20069;-69
2022/08/14 08:08:58;;;;;;;29.60;13.48;;;;;;;29.60;32.32;100236.06;5011276;28;20049;-69
2022/08/14 08:11:25;;;;;;;29.63;14.48;;;;;;;29.84;31.96;100231.72;5028346;28;20057;-68
2022/08/14 08:13:53;;;;;;;33.67;14.10;;;;;;;30.39;31.33;100234.69;5030542;28;20053;-69
2022/08/14 08:16:22;;;;;;;31.13;14.90;;;;;;;30.63;30.67;100235.13;5012883;28;20044;-69
2022/08/14 08:18:49;;;;;;;37.33;14.70;;;;;;;30.50;31.16;100237.53;5037949;28;20056;-69
2022/08/14 08:21:15;;;;;;;;;;;;;;;30.58;31.14;100236.31;5031402;28;20051;-69
2022/08/14 08:23:41;;;;;;;33.72;16.17;;;;;;;30.79;31.19;100226.28;5034404;28;19925;-69
2022/08/14 08:26:08;;;;;;;34.05;16.58;;;;;;;30.82;31.11;100233.94;5019460;28;20540;-69
2022/08/14 08:28:34;;;;;;;32.28;15.80;;;;;;;30.87;31.09;100224.25;4991137;28;20204;-69
2022/08/14 08:31:02;;;;;;;30.45;14.70;;;;;;;30.93;30.78;100231.91;5023601;28;20518;-69
2022/08/14 08:33:31;;;;;;;39.50;14.63;;;;;;;31.13;29.39;100229.44;5004967;28;20053;-69
2022/08/14 08:35:58;;;;;;;26.25;12.55;;;;;;;31.27;28.70;100225.00;5016981;28;20164;-69
2022/08/14 08:38:26;;;;;;;29.35;13.20;;;;;;;31.45;28.13;100226.97;5024173;28;20389;-69
2022/08/14 08:40:55;;;;;;;26.80;12.32;;;;;;;32.00;27.31;100222.72;5014335;28;20103;-70
2022/08/14 08:43:24;;;;;;;26.88;11.95;;;;;;;32.62;26.96;100228.78;5022109;28;20488;-70
2022/08/14 08:45:55;;;;;;;42.83;12.82;;;;;;;32.62;27.14;100223.09;4971072;28;20108;-69
2022/08/14 08:48:22;;;;;;;27.55;12.50;;;;;;;32.88;26.52;100225.75;4996556;28;20056;-69
2022/08/14 08:50:48;;;;;;;27.63;13.68;;;;;;;33.19;25.67;100223.03;5003762;28;20105;-68
2022/08/14 08:53:14;;;;;;;30.98;13.60;;;;;;;33.26;25.53;100217.28;5012172;28;20092;-69
2022/08/14 08:55:43;;;;;;;30.67;13.48;;;;;;;33.44;25.61;100217.09;4985791;28;20074;-74
2022/08/14 08:58:10;;;;;;;40.08;13.88;;;;;;;33.78;24.72;100219.09;4990888;28;20046;-69
2022/08/14 09:00:40;;;;;;;31.73;13.60;;;;;;;33.72;25.23;100217.16;4988565;28;20749;-69
2022/08/14 09:03:08;;;;;;;42.08;12.77;;;;;;;33.43;25.31;100209.81;5004965;28;20045;-69
2022/08/14 09:05:37;;;;;;;27.27;12.35;;;;;;;33.57;25.05;100206.00;4989511;28;20190;-70
2022/08/14 09:08:15;;;;;;;27.98;12.80;;;;;;;34.37;24.57;100210.56;5027706;28;20042;-68
2022/08/14 09:10:42;;;;;;;23.10;11.95;;;;;;;34.28;24.30;100205.44;4989259;28;20049;-69
2022/08/14 09:13:11;;;;;;;24.75;12.38;;;;;;;34.31;24.38;100207.41;5002484;28;20054;-69
2022/08/14 09:15:40;;;;;;;23.40;11.77;;;;;;;35.07;23.55;100211.03;5007451;28;20053;-69
2022/08/14 09:18:08;;;;;;;29.92;11.30;;;;;;;35.25;22.71;100202.19;5002424;28;20042;-68
2022/08/14 09:20:36;;;;;;;23.98;11.75;;;;;;;34.28;23.87;100213.16;4984280;28;20046;-67
2022/08/14 09:23:03;;;;;;;39.42;12.32;;;;;;;33.44;24.96;100205.78;5010612;28;20042;-69
2022/08/14 09:25:30;;;;;;;29.05;12.65;;;;;;;33.32;24.57;100203.47;5015084;28;20527;-67
2022/08/14 09:27:56;;;;;;;27.30;12.35;;;;;;;33.76;24.38;100204.56;5018525;28;20115;-69
2022/08/14 09:30:22;;;;;;;21.00;12.02;;;;;;;34.21;23.19;100202.72;5005431;28;20041;-70
2022/08/14 09:33:03;;;;;;;32.03;12.73;;;;;;;33.80;24.03;100199.63;5006298;28;20108;-67
2022/08/14 09:35:41;;;;;;;30.63;12.95;;;;;;;33.34;24.28;100201.81;5031484;28;20045;-67
2022/08/14 09:38:18;;;;;;;35.38;12.70;;;;;;;33.69;23.99;100198.19;5028547;28;20045;-67
2022/08/14 09:40:54;;;;;;;40.20;12.73;;;;;;;34.61;23.02;100202.91;5004852;28;20042;-68
2022/08/14 09:43:29;;;;;;;27.15;11.30;;;;;;;35.12;22.45;100199.16;5010832;28;20389;-69
2022/08/14 09:45:57;;;;;;;26.38;11.70;;;;;;;34.38;23.18;100195.16;5009390;28;20052;-68
2022/08/14 09:48:27;;;;;;;34.42;11.93;;;;;;;33.68;23.50;100202.25;5026750;28;20577;-67
2022/08/14 09:50:54;;;;;;;32.13;11.75;;;;;;;33.44;24.02;100196.47;5048690;28;20051;-68
2022/08/14 09:53:36;;;;;;;31.23;12.68;;;;;;;33.60;24.43;100195.88;5021208;28;20046;-69
2022/08/14 09:56:03;;;;;;;27.20;12.38;;;;;;;33.76;24.27;100198.06;5021524;28;20083;-68
2022/08/14 09:58:37;;;;;;;30.25;12.55;;;;;;;33.58;24.27;100193.44;5005243;28;20056;-68
2022/08/14 10:01:09;;;;;;;35.05;13.25;;;;;;;33.06;24.70;100197.25;5022285;28;20122;-74
2022/08/14 10:03:47;;;;;;;36.80;12.93;;;;;;;32.62;25.52;100203.31;5022753;28;20054;-73
2022/08/14 10:06:16;;;;;;;30.13;12.13;;;;;;;32.37;25.70;100204.34;5022253;28;20049;-74
2022/08/14 10:08:45;;;;;;;27.70;12.75;;;;;;;32.45;25.86;100195.78;5006666;28;20053;-74
2022/08/14 10:11:20;;;;;;;29.30;14.02;;;;;;;32.19;25.33;100198.75;5025655;28;20060;-74
2022/08/14 10:13:50;;;;;;;28.40;13.38;;;;;;;32.04;25.85;100195.25;5026381;28;20049;-73
2022/08/14 10:16:17;;;;;;;32.95;13.10;;;;;;;33.00;24.81;100198.94;5023597;28;20049;-75
2022/08/14 10:18:49;;;;;;;34.10;14.35;;;;;;;34.23;23.80;100198.22;5006397;28;20087;-75
2022/08/14 10:21:17;;;;;;;30.45;13.02;;;;;;;35.20;22.14;100196.97;5025096;28;20423;-73
2022/08/14 10:23:46;;;;;;;23.83;12.60;;;;;;;35.75;21.46;100193.84;5027409;28;20135;-75
2022/08/14 10:26:18;;;;;;;23.38;12.65;;;;;;;35.93;20.98;100193.47;5031374;28;20049;-76
2022/08/14 10:28:47;;;;;;;27.00;13.15;;;;;;;35.73;21.17;100196.34;5021682;28;20058;-74
2022/08/14 10:31:22;;;;;;;30.92;13.60;;;;;;;35.84;21.47;100196.91;5007255;28;20045;-74
2022/08/14 10:34:04;;;;;;;29.45;13.45;;;;;;;36.36;20.72;100200.19;5026597;28;20124;-75
2022/08/14 10:36:32;;;;;;;23.48;13.32;;;;;;;35.30;21.48;100190.28;5005482;28;20124;-69
2022/08/14 10:39:02;;;;;;;27.52;13.07;;;;;;;34.26;22.95;100190.88;5004732;28;20061;-67
2022/08/14 10:41:38;;;;;;;30.42;15.90;;;;;;;33.39;23.90;100192.03;4985988;28;20073;-69
2022/08/14 10:44:07;;;;;;;33.85;14.55;;;;;;;32.84;24.92;100193.81;5003744;28;20049;-69
2022/08/14 10:46:40;;;;;;;33.28;15.50;;;;;;;33.30;24.62;100181.22;5020383;28;20053;-70
2022/08/14 10:49:17;;;;;;;27.90;14.10;;;;;;;33.98;24.68;100186.47;5006942;28;20053;-68
2022/08/14 10:51:54;;;;;;;31.58;13.75;;;;;;;35.23;22.70;100189.63;4993331;28;20057;-69
2022/08/14 10:54:30;;;;;;;29.85;13.57;;;;;;;35.61;22.32;100181.56;4986327;28;20065;-69
2022/08/14 10:56:56;;;;;;;53.70;13.80;;;;;;;35.91;21.76;100182.50;4984728;28;20046;-67
2022/08/14 10:59:22;;;;;;;34.17;13.23;;;;;;;35.65;22.17;100184.31;5003041;28;20053;-68
2022/08/14 11:01:49;;;;;;;29.25;13.15;;;;;;;34.69;23.18;100192.22;5004894;28;20432;-69
2022/08/14 11:04:27;;;;;;;32.28;13.00;;;;;;;34.84;23.07;100186.28;4986842;28;20057;-69
2022/08/14 11:06:55;;;;;;;25.95;13.48;;;;;;;35.11;22.47;100188.25;5005407;28;20153;-69
2022/08/14 11:09:21;;;;;;;33.78;12.88;;;;;;;35.17;22.55;100180.81;4981690;28;20065;-68
2022/08/14 11:11:55;;;;;;;27.30;12.40;;;;;;;34.86;22.40;100193.16;5003799;28;20081;-69
2022/08/14 11:14:22;;;;;;;26.90;13.05;;;;;;;34.30;22.87;100183.13;4966153;28;20059;-68
2022/08/14 11:16:50;;;;;;;27.90;13.88;;;;;;;33.92;23.58;100181.22;4968553;28;20448;-75
2022/08/14 11:19:18;;;;;;;34.53;15.82;;;;;;;33.97;23.84;100184.84;5003542;28;20056;-74
2022/08/14 11:21:48;;;;;;;48.03;15.00;;;;;;;34.38;22.95;100183.00;4645525;28;10000214;-69
2022/08/14 11:24:17;;;;;;;34.30;14.52;;;;;;;34.85;22.41;100185.88;4974655;28;20462;-69
2022/08/14 11:26:44;;;;;;;34.22;13.23;;;;;;;34.88;22.90;100185.00;5000521;28;20751;-68